Time;durP1;ratioP1;P1;durP2;ratioP2;P2;SDS_P1;SDS_P2;PMS_P1;PMS_P2;Temp;Humidity;BMP_temperature;BMP_pressure;BME280_temperature;BME280_humidity;BME280_pressure;Samples;Min_cycle;Max_cycle;Signal;HPM_P1;HPM_P2
2022/01/10 00:02:25;;;;;;;35.15;18.98;;;102.40;1945.60;;;;;;5053253;28;20037;-60
2022/01/10 00:04:51;;;;;;;35.53;20.13;;;102.50;1945.60;;;;;;5051825;28;20025;-60
2022/01/10 00:07:17;;;;;;;38.45;21.27;;;102.50;1971.20;;;;;;5052938;28;20029;-60
2022/01/10 00:09:43;;;;;;;31.73;19.85;;;102.50;1920.00;;;;;;5053227;28;20105;-60
2022/01/10 00:12:09;;;;;;;37.47;21.23;;;102.50;1945.60;;;;;;5053188;28;20060;-60
2022/01/10 00:14:35;;;;;;;35.92;19.00;;;102.60;1971.20;;;;;;5052522;28;20086;-59
2022/01/10 00:17:00;;;;;;;32.65;18.73;;;102.60;1920.00;;;;;;5052533;28;20033;-60
2022/01/10 00:19:26;;;;;;;34.30;19.15;;;102.60;1894.40;;;;;;5053057;28;20062;-60
2022/01/10 00:21:52;;;;;;;34.20;18.95;;;102.50;1971.20;;;;;;5053003;28;20032;-60
2022/01/10 00:24:17;;;;;;;36.50;18.10;;;102.60;1920.00;;;;;;5052930;28;20486;-60
2022/01/10 00:26:43;;;;;;;34.67;18.50;;;102.50;1894.40;;;;;;5052784;28;20025;-60
2022/01/10 00:29:09;;;;;;;33.63;18.33;;;102.50;1945.60;;;;;;5052930;28;20025;-60
2022/01/10 00:31:35;;;;;;;30.60;18.02;;;102.60;1920.00;;;;;;5053262;28;20033;-61
2022/01/10 00:34:01;;;;;;;34.40;19.15;;;102.50;1868.80;;;;;;5052935;28;20379;-60
2022/01/10 00:36:27;;;;;;;29.77;17.33;;;102.50;1920.00;;;;;;5053751;28;20542;-61
2022/01/10 00:38:53;;;;;;;30.08;16.25;;;102.60;1945.60;;;;;;5056345;28;20108;-62
2022/01/10 00:41:18;;;;;;;28.35;15.77;;;102.40;1868.80;;;;;;5056357;28;20060;-62
2022/01/10 00:43:48;;;;;;;27.70;16.10;;;102.40;1920.00;;;;;;5056139;28;20053;-61
2022/01/10 00:46:15;;;;;;;28.95;15.35;;;102.50;1971.20;;;;;;5056266;28;20430;-61
2022/01/10 00:48:40;;;;;;;29.63;16.60;;;102.40;1894.40;;;;;;5054806;28;20090;-61
2022/01/10 00:51:06;;;;;;;27.90;15.80;;;102.40;1920.00;;;;;;5056262;28;20025;-61
2022/01/10 00:53:32;;;;;;;23.80;14.05;;;102.50;1945.60;;;;;;5056600;28;20025;-61
2022/01/10 00:55:58;;;;;;;28.92;15.68;;;102.50;1894.40;;;;;;5056030;28;20116;-63
2022/01/10 00:58:23;;;;;;;27.00;15.32;;;102.40;1894.40;;;;;;5055790;28;20075;-62
2022/01/10 01:00:51;;;;;;;26.55;15.50;;;102.40;1920.00;;;;;;5055909;28;20033;-62
2022/01/10 01:03:17;;;;;;;27.27;15.95;;;102.40;1945.60;;;;;;5054544;28;20033;-61
2022/01/10 01:05:44;;;;;;;26.30;15.60;;;77.70;1920.00;;;;;;5056223;28;20417;-62
2022/01/10 01:08:12;;;;;;;31.40;15.95;;;77.70;1920.00;;;;;;5055513;28;20072;-61
2022/01/10 01:16:09;;;;;;;30.85;16.58;;;77.60;1920.00;;;;;;5055684;28;20040;-61
2022/01/10 01:26:26;;;;;;;32.80;17.60;;;77.50;1920.00;;;;;;5055316;28;20025;-60
2022/01/10 01:28:53;;;;;;;29.60;17.48;;;77.50;1894.40;;;;;;5055610;28;20386;-60
2022/01/10 01:31:18;;;;;;;24.67;15.60;;;77.40;1868.80;;;;;;5055083;28;20032;-60
2022/01/10 01:33:45;;;;;;;29.40;16.65;;;77.40;1894.40;;;;;;5055280;28;20025;-60
2022/01/10 01:36:11;;;;;;;25.58;15.50;;;77.40;1894.40;;;;;;5055011;28;20087;-60
2022/01/10 01:38:38;;;;;;;26.08;16.15;;;77.30;1894.40;;;;;;5055365;28;20025;-61
2022/01/10 01:43:49;;;;;;;52.47;18.88;;;77.50;1945.60;;;;;;5055147;28;20028;-60
2022/01/10 01:46:15;;;;;;;30.50;17.13;;;77.50;2048.00;;;;;;5055170;28;20056;-60
2022/01/10 01:48:41;;;;;;;32.03;18.20;;;77.60;2048.00;;;;;;5054626;28;20045;-61
2022/01/10 01:51:06;;;;;;;29.20;18.13;;;77.60;1971.20;;;;;;5055131;28;20090;-61
2022/01/10 01:53:33;;;;;;;33.60;18.42;;;77.50;1920.00;;;;;;5054898;28;20448;-61
2022/01/10 01:55:59;;;;;;;30.67;18.85;;;77.60;1971.20;;;;;;5053585;28;20418;-63
2022/01/10 01:58:26;;;;;;;28.95;16.50;;;77.60;1945.60;;;;;;5055106;28;20027;-59
2022/01/10 02:00:52;;;;;;;32.38;18.77;;;77.70;1894.40;;;;;;5053628;28;20032;-60
2022/01/10 02:03:18;;;;;;;31.90;16.65;;;77.60;1945.60;;;;;;5055000;28;20098;-59
2022/01/10 02:05:44;;;;;;;29.05;16.73;;;77.70;1920.00;;;;;;5054954;28;20104;-60
2022/01/10 02:08:10;;;;;;;28.63;18.15;;;77.70;1894.40;;;;;;5054036;28;20448;-60
2022/01/10 02:10:37;;;;;;;29.52;16.77;;;77.60;1945.60;;;;;;5053232;28;20120;-60
2022/01/10 02:13:03;;;;;;;28.58;17.77;;;77.70;1920.00;;;;;;5054587;28;20068;-60
2022/01/10 02:18:20;;;;;;;27.90;16.50;;;77.70;1945.60;;;;;;5055057;28;20128;-60
2022/01/10 02:20:46;;;;;;;24.67;14.55;;;102.40;1894.40;;;;;;5053236;28;20124;-60
2022/01/10 02:23:13;;;;;;;28.08;16.15;;;77.70;1894.40;;;;;;5054339;28;20033;-60
2022/01/10 02:25:40;;;;;;;23.25;13.93;;;77.70;1920.00;;;;;;5054034;28;20087;-60
2022/01/10 02:28:06;;;;;;;24.40;14.00;;;102.40;1868.80;;;;;;5054395;28;20052;-61
2022/01/10 02:30:32;;;;;;;24.40;14.88;;;77.70;1894.40;;;;;;5054355;28;20052;-60
2022/01/10 02:33:00;;;;;;;23.90;14.77;;;77.70;1920.00;;;;;;5054349;28;20044;-61
2022/01/10 02:35:34;;;;;;;22.92;13.95;;;77.70;1894.40;;;;;;5054248;28;20116;-60
2022/01/10 02:38:01;;;;;;;26.80;16.35;;;77.50;1868.80;;;;;;5054269;28;20021;-60
2022/01/10 02:40:30;;;;;;;25.83;14.82;;;77.50;1945.60;;;;;;5054230;28;20029;-60
2022/01/10 02:42:56;;;;;;;26.92;14.73;;;77.60;1920.00;;;;;;5054047;28;20060;-60
2022/01/10 02:45:24;;;;;;;27.92;16.02;;;77.60;1894.40;;;;;;5054200;28;20104;-60
2022/01/10 02:47:50;;;;;;;29.30;16.38;;;77.60;1920.00;;;;;;5053986;28;20025;-60
2022/01/10 02:50:18;;;;;;;30.35;15.85;;;77.60;1920.00;;;;;;5052795;28;20028;-60
2022/01/10 02:52:44;;;;;;;23.70;14.93;;;77.60;1894.40;;;;;;5053959;28;20439;-60
2022/01/10 02:55:11;;;;;;;22.75;14.73;;;77.60;1920.00;;;;;;5053894;28;20032;-60
2022/01/10 02:57:38;;;;;;;23.55;14.63;;;77.60;1945.60;;;;;;5053835;28;20028;-60
2022/01/10 03:00:11;;;;;;;22.83;14.43;;;77.60;1920.00;;;;;;5053203;28;20053;-60
2022/01/10 03:02:37;;;;;;;21.50;14.13;;;77.60;1920.00;;;;;;5053829;28;20429;-60
2022/01/10 03:05:05;;;;;;;22.85;14.93;;;77.70;1920.00;;;;;;5053652;28;20021;-59
2022/01/10 03:07:31;;;;;;;21.48;12.70;;;77.70;1920.00;;;;;;5053719;28;20116;-60
2022/01/10 03:09:57;;;;;;;21.58;14.30;;;77.70;1868.80;;;;;;5053766;28;20048;-59
2022/01/10 03:12:23;;;;;;;22.25;14.65;;;77.60;1894.40;;;;;;5053715;28;20057;-60
2022/01/10 03:14:49;;;;;;;22.48;14.07;;;77.60;1945.60;;;;;;5053645;28;20017;-59
2022/01/10 03:17:15;;;;;;;21.65;13.80;;;77.60;1920.00;;;;;;5053797;28;20029;-59
2022/01/10 03:19:42;;;;;;;23.10;13.82;;;77.60;1894.40;;;;;;5053698;28;20059;-60
2022/01/10 03:22:08;;;;;;;23.33;14.30;;;77.60;1920.00;;;;;;5053420;28;20048;-60
2022/01/10 03:24:35;;;;;;;21.27;13.60;;;77.60;1920.00;;;;;;5053647;28;20395;-59
2022/01/10 03:27:00;;;;;;;22.70;13.77;;;77.50;1894.40;;;;;;5053164;28;20052;-59
2022/01/10 03:29:26;;;;;;;19.33;12.75;;;77.50;1868.80;;;;;;5053419;28;20048;-59
2022/01/10 03:31:52;;;;;;;19.30;12.38;;;77.50;1894.40;;;;;;5053517;28;20033;-58
2022/01/10 03:34:18;;;;;;;19.60;12.27;;;77.50;1920.00;;;;;;5053564;28;20033;-59
2022/01/10 03:36:45;;;;;;;19.58;12.57;;;77.60;1894.40;;;;;;5053450;28;20078;-59
2022/01/10 03:39:12;;;;;;;17.35;10.85;;;77.60;1843.20;;;;;;5053145;28;20029;-59
2022/01/10 03:41:38;;;;;;;18.02;11.05;;;77.50;1817.60;;;;;;5053333;28;20037;-60
2022/01/10 03:44:05;;;;;;;18.92;12.15;;;77.40;1843.20;;;;;;5053545;28;20473;-60
2022/01/10 03:46:33;;;;;;;18.33;11.70;;;77.40;1817.60;;;;;;5053077;28;20482;-60
2022/01/10 03:49:00;;;;;;;18.52;11.55;;;77.40;1843.20;;;;;;5053292;28;20433;-60
2022/01/10 03:51:27;;;;;;;21.40;13.13;;;77.30;1843.20;;;;;;5053307;28;20053;-60
2022/01/10 03:53:53;;;;;;;21.40;13.52;;;77.30;1868.80;;;;;;5053216;28;20040;-60
2022/01/10 03:56:21;;;;;;;21.35;12.80;;;77.30;1894.40;;;;;;5053032;28;20059;-60
2022/01/10 03:58:48;;;;;;;34.50;15.15;;;77.30;1945.60;;;;;;5052900;28;20049;-60
2022/01/10 04:01:14;;;;;;;20.25;14.02;;;77.40;2048.00;;;;;;5053151;28;20106;-60
2022/01/10 04:03:41;;;;;;;22.05;13.98;;;77.50;2048.00;;;;;;5053519;28;20037;-62
2022/01/10 04:06:08;;;;;;;27.92;14.07;;;77.60;2073.60;;;;;;5053004;28;20061;-61
2022/01/10 04:08:34;;;;;;;26.65;12.57;;;102.40;1996.80;;;;;;5053110;28;20033;-64
2022/01/10 04:11:00;;;;;;;20.83;12.70;;;102.40;1894.40;;;;;;5054653;28;20112;-69
2022/01/10 04:13:26;;;;;;;27.92;15.52;;;77.70;1920.00;;;;;;5056580;28;20404;-66
2022/01/10 04:15:52;;;;;;;31.88;16.00;;;102.40;2073.60;;;;;;5056668;28;20132;-63
2022/01/10 04:18:18;;;;;;;30.00;15.90;;;102.40;1971.20;;;;;;5056553;28;20503;-62
2022/01/10 04:20:44;;;;;;;31.65;15.73;;;102.40;1920.00;;;;;;5056788;28;20021;-60
2022/01/10 04:23:11;;;;;;;25.60;14.95;;;102.40;1920.00;;;;;;5055232;28;20060;-61
2022/01/10 04:25:37;;;;;;;30.15;15.25;;;102.40;1920.00;;;;;;5056840;28;20407;-62
2022/01/10 04:28:03;;;;;;;30.27;15.85;;;102.50;1920.00;;;;;;5056677;28;20029;-61
2022/01/10 04:30:29;;;;;;;24.80;15.32;;;102.50;1868.80;;;;;;5056697;28;20021;-61
2022/01/10 04:32:58;;;;;;;29.75;17.52;;;102.40;1894.40;;;;;;5056665;28;20082;-61
2022/01/10 04:35:24;;;;;;;28.83;16.02;;;102.40;1843.20;;;;;;5056408;28;20043;-60
2022/01/10 04:37:49;;;;;;;27.65;16.10;;;77.70;1894.40;;;;;;5056327;28;20025;-60
2022/01/10 04:40:16;;;;;;;30.55;17.30;;;102.40;1894.40;;;;;;5056376;28;20028;-59
2022/01/10 04:42:42;;;;;;;31.35;17.52;;;77.70;1868.80;;;;;;5056157;28;20040;-61
2022/01/10 04:45:08;;;;;;;30.75;17.75;;;77.70;1894.40;;;;;;5056326;28;20127;-61
2022/01/10 04:47:34;;;;;;;30.23;16.58;;;77.70;1843.20;;;;;;5056377;28;20033;-59
2022/01/10 04:52:27;;;;;;;28.73;16.45;;;77.70;1894.40;;;;;;5056358;28;20021;-60
2022/01/10 04:54:52;;;;;;;27.85;16.33;;;77.70;1843.20;;;;;;5056069;28;20032;-60
2022/01/10 04:57:18;;;;;;;25.13;15.05;;;77.60;1894.40;;;;;;5055933;28;20032;-59
2022/01/10 04:59:44;;;;;;;24.00;14.75;;;77.70;1817.60;;;;;;5055757;28;20052;-60
2022/01/10 05:02:12;;;;;;;25.80;16.35;;;77.60;1868.80;;;;;;5056040;28;20403;-60
2022/01/10 05:04:38;;;;;;;25.92;15.98;;;77.60;1868.80;;;;;;5056007;28;20027;-61
2022/01/10 05:07:04;;;;;;;28.15;16.88;;;77.60;1843.20;;;;;;5055732;28;20108;-60
2022/01/10 05:09:30;;;;;;;27.67;15.88;;;77.60;1868.80;;;;;;5056072;28;20036;-60
2022/01/10 05:11:56;;;;;;;25.23;15.90;;;77.60;1817.60;;;;;;5056380;28;20051;-60
2022/01/10 05:14:22;;;;;;;26.65;15.63;;;77.50;1868.80;;;;;;5055795;28;20033;-60
2022/01/10 05:16:48;;;;;;;24.77;15.80;;;77.40;1843.20;;;;;;5055800;28;20113;-59
2022/01/10 05:19:14;;;;;;;25.40;14.88;;;77.40;1868.80;;;;;;5055674;28;20053;-60
2022/01/10 05:21:40;;;;;;;23.05;13.95;;;77.50;1868.80;;;;;;5053527;28;20475;-60
2022/01/10 05:24:07;;;;;;;25.73;14.85;;;77.20;1868.80;;;;;;5055451;28;20033;-60
2022/01/10 05:26:33;;;;;;;29.85;16.02;;;77.20;1894.40;;;;;;5055298;28;20040;-59
2022/01/10 05:29:01;;;;;;;22.98;14.20;;;77.20;1843.20;;;;;;5055421;28;20029;-60
2022/01/10 05:31:28;;;;;;;21.58;13.50;;;77.20;1894.40;;;;;;5055765;28;20025;-60
2022/01/10 05:33:54;;;;;;;20.33;12.43;;;77.30;1894.40;;;;;;5055490;28;20033;-60
2022/01/10 05:36:20;;;;;;;20.80;12.55;;;77.20;1868.80;;;;;;5055199;28;20032;-60
2022/01/10 05:38:45;;;;;;;18.17;11.60;;;77.10;1894.40;;;;;;5055194;28;20025;-60
2022/01/10 05:41:11;;;;;;;20.02;12.30;;;77.10;1868.80;;;;;;5055280;28;20040;-60
2022/01/10 05:43:38;;;;;;;19.70;12.30;;;77.20;1868.80;;;;;;5054905;28;20033;-60
2022/01/10 05:46:07;;;;;;;18.67;11.30;;;77.20;1894.40;;;;;;5055089;28;20481;-60
2022/01/10 05:48:34;;;;;;;20.30;13.02;;;77.00;1868.80;;;;;;5055176;28;20029;-60
2022/01/10 05:51:00;;;;;;;19.90;12.93;;;77.10;1894.40;;;;;;5055001;28;20483;-60
2022/01/10 05:53:25;;;;;;;22.08;14.45;;;77.00;1894.40;;;;;;5055005;28;20029;-59
2022/01/10 05:55:51;;;;;;;22.27;14.18;;;76.90;1894.40;;;;;;5054971;28;20032;-60
2022/01/10 05:58:17;;;;;;;23.55;14.25;;;76.90;1920.00;;;;;;5054838;28;20514;-60
2022/01/10 06:00:44;;;;;;;23.75;14.80;;;76.80;1894.40;;;;;;5054711;28;20032;-60
2022/01/10 06:03:10;;;;;;;24.05;14.80;;;76.90;1920.00;;;;;;5054852;28;20040;-60
2022/01/10 06:05:36;;;;;;;26.60;15.43;;;76.90;1894.40;;;;;;5054848;28;20128;-60
2022/01/10 06:08:04;;;;;;;25.20;14.18;;;76.90;1920.00;;;;;;5054762;28;20052;-60
2022/01/10 06:10:31;;;;;;;20.00;12.85;;;76.90;1920.00;;;;;;5054682;28;20029;-60
2022/01/10 06:12:57;;;;;;;21.20;13.55;;;77.00;1894.40;;;;;;5054661;28;20107;-60
2022/01/10 06:15:24;;;;;;;19.70;13.13;;;77.00;1894.40;;;;;;5054584;28;20029;-60
2022/01/10 06:17:50;;;;;;;21.33;13.38;;;77.10;1894.40;;;;;;5054635;28;20375;-60
2022/01/10 06:20:16;;;;;;;22.77;14.10;;;77.00;1868.80;;;;;;5054475;28;20029;-60
2022/01/10 06:22:42;;;;;;;26.75;16.00;;;77.00;1894.40;;;;;;5054236;28;20119;-60
2022/01/10 06:25:11;;;;;;;22.92;14.10;;;77.00;1894.40;;;;;;5054201;28;20108;-60
2022/01/10 06:27:37;;;;;;;24.55;15.00;;;76.90;1868.80;;;;;;5054181;28;20625;-60
2022/01/10 06:30:04;;;;;;;22.20;12.73;;;76.90;1920.00;;;;;;5054084;28;20112;-61
2022/01/10 06:32:30;;;;;;;21.30;14.35;;;77.00;1894.40;;;;;;5054314;28;20028;-60
2022/01/10 06:34:57;;;;;;;21.73;14.25;;;77.00;1868.80;;;;;;5054344;28;20471;-61
2022/01/10 06:37:23;;;;;;;23.80;14.85;;;77.00;1894.40;;;;;;5054050;28;20513;-61
2022/01/10 06:39:49;;;;;;;21.98;14.77;;;77.00;1868.80;;;;;;5053966;28;20032;-60
2022/01/10 06:42:15;;;;;;;26.05;15.80;;;77.00;1843.20;;;;;;5053944;28;20032;-60
2022/01/10 06:44:41;;;;;;;25.20;15.65;;;77.10;1894.40;;;;;;5052622;28;20479;-60
2022/01/10 06:47:06;;;;;;;27.38;16.90;;;77.10;1868.80;;;;;;5054101;28;20028;-60
2022/01/10 06:49:32;;;;;;;26.08;15.80;;;77.00;1843.20;;;;;;5054176;28;20017;-60
2022/01/10 06:51:58;;;;;;;24.08;15.73;;;77.00;1894.40;;;;;;5053479;28;20067;-60
2022/01/10 06:54:24;;;;;;;22.63;14.63;;;77.00;1868.80;;;;;;5053928;28;20162;-61
2022/01/10 06:56:50;;;;;;;23.45;15.18;;;76.90;1843.20;;;;;;5054054;28;20041;-60
2022/01/10 06:59:17;;;;;;;23.25;13.57;;;76.80;1843.20;;;;;;5053888;28;20075;-60
2022/01/10 07:01:43;;;;;;;24.85;14.73;;;76.80;1843.20;;;;;;5053805;28;20037;-60
2022/01/10 07:04:10;;;;;;;23.65;13.82;;;76.80;1868.80;;;;;;5053783;28;20049;-61
2022/01/10 07:06:36;;;;;;;21.23;13.40;;;76.80;1894.40;;;;;;5053832;28;20390;-60
2022/01/10 07:09:02;;;;;;;21.63;13.85;;;76.80;1868.80;;;;;;5053313;28;20108;-60
2022/01/10 07:11:28;;;;;;;25.63;15.32;;;76.80;1817.60;;;;;;5053691;28;20021;-60
2022/01/10 07:13:54;;;;;;;26.73;16.25;;;76.80;1894.40;;;;;;5053623;28;20136;-60
2022/01/10 07:16:20;;;;;;;29.08;18.08;;;76.80;1894.40;;;;;;5053665;28;20024;-60
2022/01/10 07:18:46;;;;;;;39.47;22.35;;;76.80;1843.20;;;;;;5053649;28;20052;-61
2022/01/10 07:21:12;;;;;;;45.88;26.40;;;76.90;1868.80;;;;;;5053273;28;20064;-60
2022/01/10 07:23:37;;;;;;;51.90;29.80;;;76.90;1868.80;;;;;;5053443;28;20037;-59
2022/01/10 07:26:03;;;;;;;47.38;27.02;;;76.80;1843.20;;;;;;5053564;28;20017;-61
2022/01/10 07:28:29;;;;;;;50.17;28.30;;;76.80;1843.20;;;;;;5052579;28;20029;-60
2022/01/10 07:30:55;;;;;;;48.40;28.02;;;76.80;1894.40;;;;;;5052887;28;20014;-58
2022/01/10 07:33:21;;;;;;;42.60;24.92;;;76.80;1843.20;;;;;;5052872;28;20028;-60
2022/01/10 07:35:47;;;;;;;36.25;21.20;;;76.80;1843.20;;;;;;5052705;28;20028;-57
2022/01/10 07:38:13;;;;;;;34.63;20.77;;;76.80;1868.80;;;;;;5052840;28;20356;-60
2022/01/10 07:40:39;;;;;;;35.35;19.58;;;76.80;1868.80;;;;;;5052602;28;20017;-60
2022/01/10 07:43:04;;;;;;;38.85;22.52;;;76.80;1817.60;;;;;;5052721;28;20040;-60
2022/01/10 07:45:30;;;;;;;39.10;21.85;;;76.80;1843.20;;;;;;5053687;28;20083;-59
2022/01/10 07:47:56;;;;;;;32.20;19.13;;;52.00;1843.20;;;;;;5057479;28;20029;-64
2022/01/10 07:50:22;;;;;;;36.60;20.75;;;52.00;1817.60;;;;;;5056505;28;20463;-60
2022/01/10 07:52:48;;;;;;;40.10;21.88;;;51.90;1817.60;;;;;;5057412;28;20028;-61
2022/01/10 07:55:13;;;;;;;41.55;24.42;;;51.80;1817.60;;;;;;5057423;28;20052;-60
2022/01/10 07:57:39;;;;;;;41.85;22.55;;;51.80;1817.60;;;;;;5057132;28;20482;-60
2022/01/10 08:00:07;;;;;;;37.70;22.40;;;51.80;1843.20;;;;;;5056907;28;20049;-60
2022/01/10 08:02:33;;;;;;;50.15;24.88;;;51.80;1843.20;;;;;;5057223;28;20033;-59
2022/01/10 08:04:58;;;;;;;45.55;24.00;;;51.80;1843.20;;;;;;5057051;28;20378;-66
2022/01/10 08:07:24;;;;;;;43.78;22.65;;;51.90;1843.20;;;;;;5056727;28;20060;-65
2022/01/10 08:09:50;;;;;;;44.30;24.27;;;51.80;1843.20;;;;;;5057434;28;20029;-60
2022/01/10 08:12:16;;;;;;;47.88;25.52;;;51.90;1843.20;;;;;;5056651;28;20021;-61
2022/01/10 08:14:41;;;;;;;56.55;28.90;;;51.90;1868.80;;;;;;5057103;28;20032;-61
2022/01/10 08:17:07;;;;;;;57.75;30.65;;;52.00;1868.80;;;;;;5056744;28;20486;-62
2022/01/10 08:19:34;;;;;;;52.08;27.25;;;51.90;1894.40;;;;;;5056808;28;20485;-61
2022/01/10 08:22:03;;;;;;;49.72;25.33;;;51.90;1894.40;;;;;;5056476;28;20051;-60
2022/01/10 08:24:29;;;;;;;42.60;23.92;;;51.90;1868.80;;;;;;5055388;28;20075;-60
2022/01/10 08:26:56;;;;;;;41.17;23.45;;;51.90;1894.40;;;;;;5055339;28;20394;-61
2022/01/10 08:29:23;;;;;;;42.90;23.80;;;51.90;1920.00;;;;;;5056635;28;20075;-60
2022/01/10 08:31:49;;;;;;;48.60;27.10;;;51.90;1843.20;;;;;;5056783;28;20033;-60
2022/01/10 08:34:14;;;;;;;51.85;28.55;;;51.90;1894.40;;;;;;5056682;28;20352;-60
2022/01/10 08:36:40;;;;;;;53.05;30.25;;;52.00;1894.40;;;;;;5056653;28;20037;-60
2022/01/10 08:39:07;;;;;;;61.83;34.65;;;52.00;1868.80;;;;;;5056471;28;20025;-60
2022/01/10 08:41:35;;;;;;;62.97;33.95;;;52.00;1894.40;;;;;;5056301;28;20086;-61
2022/01/10 08:44:02;;;;;;;55.20;31.08;;;76.80;1894.40;;;;;;5054928;28;20033;-62
2022/01/10 08:46:28;;;;;;;45.13;27.48;;;76.80;1868.80;;;;;;5056398;28;20087;-61
2022/01/10 08:48:54;;;;;;;48.83;27.33;;;76.80;1894.40;;;;;;5056323;28;20410;-60
2022/01/10 08:51:20;;;;;;;47.50;26.33;;;76.80;1843.20;;;;;;5056323;28;20028;-60
2022/01/10 08:53:45;;;;;;;62.17;29.35;;;76.80;1894.40;;;;;;5056178;28;20029;-60
2022/01/10 08:56:11;;;;;;;55.97;26.83;;;76.80;1920.00;;;;;;5055769;28;20471;-60
2022/01/10 08:58:37;;;;;;;47.38;25.55;;;76.80;1843.20;;;;;;5055003;28;20044;-60
2022/01/10 09:01:05;;;;;;;41.10;23.98;;;76.90;1894.40;;;;;;5055634;28;20033;-60
2022/01/10 09:03:32;;;;;;;45.95;26.13;;;76.90;1868.80;;;;;;5056180;28;20467;-60
2022/01/10 09:05:58;;;;;;;44.28;24.92;;;76.90;1843.20;;;;;;5055932;28;20083;-61
2022/01/10 09:08:26;;;;;;;48.75;25.20;;;76.90;1894.40;;;;;;5056097;28;20083;-60
2022/01/10 09:10:53;;;;;;;50.30;28.02;;;76.90;1817.60;;;;;;5056040;28;20041;-60
2022/01/10 09:13:20;;;;;;;49.25;28.00;;;77.00;1868.80;;;;;;5055529;28;20086;-60
2022/01/10 09:15:46;;;;;;;48.75;28.52;;;77.00;1894.40;;;;;;5056087;28;20108;-60
2022/01/10 09:18:12;;;;;;;42.25;24.65;;;76.90;1817.60;;;;;;5053855;28;20079;-60
2022/01/10 09:20:38;;;;;;;48.80;27.33;;;77.00;1868.80;;;;;;5055426;28;20068;-62
2022/01/10 09:23:04;;;;;;;52.10;28.95;;;77.10;1868.80;;;;;;5055453;28;20061;-59
2022/01/10 09:25:30;;;;;;;48.65;27.40;;;77.20;1971.20;;;;;;5055613;28;20032;-64
2022/01/10 09:27:55;;;;;;;53.45;30.50;;;77.30;1894.40;;;;;;5055442;28;20032;-66
2022/01/10 09:30:22;;;;;;;57.53;29.58;;;77.20;1868.80;;;;;;5055239;28;20108;-65
2022/01/10 09:32:48;;;;;;;58.55;33.83;;;77.20;1843.20;;;;;;5055442;28;20106;-68
2022/01/10 09:35:14;;;;;;;69.03;39.10;;;77.20;1843.20;;;;;;5055311;28;20033;-62
2022/01/10 09:37:40;;;;;;;69.97;41.70;;;77.10;1868.80;;;;;;5055250;28;20430;-65
2022/01/10 09:40:07;;;;;;;196.55;103.93;;;77.20;1996.80;;;;;;5054972;28;20057;-60
2022/01/10 09:42:33;;;;;;;142.80;81.18;;;77.40;1996.80;;;;;;5055157;28;20091;-64
2022/01/10 09:45:00;;;;;;;108.35;62.85;;;77.50;1894.40;;;;;;5055258;28;20021;-64
2022/01/10 09:47:26;;;;;;;67.45;40.45;;;77.50;1868.80;;;;;;5054257;28;20497;-64
2022/01/10 09:49:52;;;;;;;62.47;37.65;;;77.50;1868.80;;;;;;5053834;28;20115;-64
2022/01/10 09:52:18;;;;;;;58.45;34.05;;;77.40;1843.20;;;;;;5054459;28;20033;-65
2022/01/10 09:54:43;;;;;;;62.60;37.60;;;77.30;1843.20;;;;;;5055061;28;20105;-64
2022/01/10 09:57:10;;;;;;;115.28;70.07;;;77.30;1868.80;;;;;;5054829;28;20050;-66
2022/01/10 09:59:36;;;;;;;100.03;57.80;;;77.30;1843.20;;;;;;5054833;28;20053;-65
2022/01/10 10:02:04;;;;;;;84.70;52.05;;;77.20;1868.80;;;;;;5053373;28;20387;-65
2022/01/10 10:04:35;;;;;;;62.92;36.78;;;77.20;1894.40;;;;;;5053470;28;20041;-65
2022/01/10 10:07:01;;;;;;;62.63;34.83;;;77.20;1817.60;;;;;;5054530;28;20036;-60
2022/01/10 10:09:29;;;;;;;58.28;32.38;;;77.20;1868.80;;;;;;5053052;28;20041;-60
2022/01/10 10:11:55;;;;;;;60.38;31.92;;;77.30;1868.80;;;;;;5054239;28;20390;-60
2022/01/10 10:14:22;;;;;;;52.05;31.48;;;77.20;1843.20;;;;;;5054683;28;20048;-61
2022/01/10 10:16:51;;;;;;;51.05;27.88;;;77.20;1868.80;;;;;;5054477;28;20112;-60
2022/01/10 10:19:23;;;;;;;48.10;27.92;;;77.30;1868.80;;;;;;5054561;28;20104;-60
2022/01/10 10:21:50;;;;;;;52.10;31.42;;;77.30;1868.80;;;;;;5054279;28;20037;-61
2022/01/10 10:24:16;;;;;;;51.85;30.17;;;77.30;1868.80;;;;;;5054539;28;20039;-60
2022/01/10 10:26:42;;;;;;;62.30;34.75;;;77.40;1894.40;;;;;;5054505;28;20021;-62
2022/01/10 10:29:13;;;;;;;57.78;34.63;;;77.40;1843.20;;;;;;5054504;28;20021;-72
2022/01/10 10:31:50;;;;;;;59.72;33.50;;;77.40;1817.60;;;;;;5054541;28;20032;-61
2022/01/10 10:34:27;;;;;;;55.95;31.13;;;77.50;1868.80;;;;;;5054425;28;20108;-64
2022/01/10 10:37:11;;;;;;;56.65;29.70;;;77.50;1843.20;;;;;;5054096;28;20024;-64
2022/01/10 10:39:40;;;;;;;84.82;42.65;;;77.50;1817.60;;;;;;5053961;28;20027;-65
2022/01/10 10:42:08;;;;;;;85.28;45.10;;;77.40;1817.60;;;;;;5053896;28;20029;-66
2022/01/10 10:44:34;;;;;;;122.03;60.88;;;77.50;1868.80;;;;;;5053850;28;20032;-65
2022/01/10 10:47:00;;;;;;;125.15;62.10;;;77.40;1817.60;;;;;;5053839;28;20021;-66
2022/01/10 10:49:33;;;;;;;143.27;66.65;;;77.40;1792.00;;;;;;5052664;28;20036;-64
2022/01/10 10:52:01;;;;;;;158.23;85.40;;;77.40;1792.00;;;;;;5053821;28;20527;-65
2022/01/10 10:54:31;;;;;;;83.70;45.47;;;77.30;1792.00;;;;;;5053745;28;20029;-65
2022/01/10 10:56:59;;;;;;;70.82;37.40;;;77.40;1817.60;;;;;;5053956;28;20108;-64
2022/01/10 10:59:29;;;;;;;59.92;31.45;;;77.50;1843.20;;;;;;5053660;28;20073;-65
2022/01/10 11:01:56;;;;;;;58.10;32.20;;;77.50;1792.00;;;;;;5053933;28;20036;-65
2022/01/10 11:04:22;;;;;;;53.15;29.75;;;77.40;1766.40;;;;;;5053678;28;20112;-62
2022/01/10 11:06:48;;;;;;;55.70;30.92;;;77.40;1843.20;;;;;;5053753;28;20037;-68
2022/01/10 11:09:14;;;;;;;58.63;32.88;;;77.50;1817.60;;;;;;5053265;28;20037;-62
2022/01/10 11:11:41;;;;;;;53.50;29.83;;;77.50;1792.00;;;;;;5053917;28;20029;-63
2022/01/10 11:14:13;;;;;;;57.50;33.30;;;77.50;1766.40;;;;;;5053646;28;20040;-63
2022/01/10 11:16:41;;;;;;;57.17;30.77;;;77.50;1792.00;;;;;;5053511;28;20056;-63
2022/01/10 11:19:15;;;;;;;54.65;30.17;;;77.60;1792.00;;;;;;5053671;28;20025;-62
2022/01/10 11:21:45;;;;;;;50.85;28.45;;;77.60;1766.40;;;;;;5052994;28;20106;-63
2022/01/10 11:24:10;;;;;;;48.40;28.20;;;77.60;1740.80;;;;;;5053449;28;20025;-62
2022/01/10 11:26:38;;;;;;;48.92;29.05;;;77.60;1715.20;;;;;;5052299;28;20532;-63
2022/01/10 11:29:08;;;;;;;51.30;27.63;;;77.50;1740.80;;;;;;5052047;28;20443;-62
2022/01/10 11:31:37;;;;;;;43.88;25.88;;;77.50;1715.20;;;;;;5053628;28;20415;-63
2022/01/10 11:34:03;;;;;;;44.45;25.50;;;77.50;1715.20;;;;;;5053690;28;20029;-63
2022/01/10 11:36:29;;;;;;;57.45;26.70;;;77.50;1740.80;;;;;;5053134;28;20036;-62
2022/01/10 11:39:00;;;;;;;47.97;24.90;;;77.60;1843.20;;;;;;5053073;28;20025;-64
2022/01/10 11:41:27;;;;;;;43.20;25.38;;;77.70;1766.40;;;;;;5051867;28;20386;-63
2022/01/10 11:43:58;;;;;;;48.00;26.52;;;77.60;1792.00;;;;;;5052901;28;20525;-63
2022/01/10 11:46:58;;;;;;;50.25;27.98;;;77.70;1868.80;;;;;;5050540;28;20025;-63
2022/01/10 11:49:25;;;;;;;78.47;40.47;;;102.40;1843.20;;;;;;5028587;28;20482;-62
2022/01/10 11:51:51;;;;;;;69.05;37.28;;;77.70;1766.40;;;;;;5030651;28;20471;-62
2022/01/10 11:54:23;;;;;;;95.80;51.22;;;77.60;1740.80;;;;;;5030938;28;20056;-62
2022/01/10 11:56:51;;;;;;;78.53;44.22;;;77.60;1766.40;;;;;;5007830;28;20032;-61
2022/01/10 11:59:24;;;;;;;60.35;34.42;;;77.60;1766.40;;;;;;5030362;28;20099;-63
2022/01/10 12:01:51;;;;;;;50.13;28.33;;;77.60;1740.80;;;;;;5025632;28;20037;-61
2022/01/10 12:04:21;;;;;;;48.72;28.02;;;77.60;1715.20;;;;;;5030517;28;20033;-61
2022/01/10 12:06:48;;;;;;;52.28;28.95;;;77.50;1740.80;;;;;;5030426;28;20026;-65
2022/01/10 12:09:14;;;;;;;44.50;25.90;;;77.50;1715.20;;;;;;5030453;28;20025;-61
2022/01/10 12:11:40;;;;;;;50.08;29.85;;;77.50;1715.20;;;;;;5030481;28;20044;-64
2022/01/10 12:14:08;;;;;;;50.13;28.70;;;77.40;1715.20;;;;;;5024941;28;20022;-60
2022/01/10 12:16:35;;;;;;;50.72;29.90;;;77.40;1715.20;;;;;;5030687;28;20017;-62
2022/01/10 12:19:03;;;;;;;47.65;28.52;;;77.40;1740.80;;;;;;5030569;28;20037;-62
2022/01/10 12:21:29;;;;;;;56.08;29.63;;;77.50;1715.20;;;;;;5030741;28;20033;-64
2022/01/10 12:23:55;;;;;;;56.67;31.52;;;77.40;1740.80;;;;;;5046675;28;20025;-61
2022/01/10 12:26:22;;;;;;;52.42;29.38;;;77.30;1740.80;;;;;;5032726;28;20046;-62